createdAt,value
2024-02-24T00:01:44.944Z,98102.00
2024-02-24T00:04:13.511Z,98108.94
2024-02-24T00:06:42.646Z,98108.94
2024-02-24T00:09:11.054Z,98100.25
2024-02-24T00:11:40.904Z,98109.81
2024-02-24T00:14:09.323Z,98119.38
2024-02-24T00:16:37.717Z,98108.94
2024-02-24T00:19:06.722Z,98115.88
2024-02-24T00:21:35.018Z,98110.66
2024-02-24T00:24:03.354Z,98114.16
2024-02-24T00:26:31.651Z,98108.09
2024-02-24T00:29:01.233Z,98111.53
2024-02-24T00:31:29.473Z,98107.22
2024-02-24T00:33:58.836Z,98106.31
2024-02-24T00:36:27.078Z,98103.72
2024-02-24T00:38:55.304Z,98098.53
2024-02-24T00:41:23.545Z,98096.75
2024-02-24T00:43:53.367Z,98092.44
2024-02-24T00:46:23.001Z,98098.50
2024-02-24T00:48:51.346Z,98104.59
2024-02-24T00:51:20.216Z,98096.78
2024-02-24T00:53:49.616Z,98097.63
2024-02-24T00:56:17.964Z,98102.81
2024-02-24T00:58:46.228Z,98100.22
2024-02-24T01:01:14.484Z,98101.94
2024-02-24T01:03:44.167Z,98108.88
2024-02-24T01:06:12.431Z,98113.19
2024-02-24T01:08:40.702Z,98116.66
2024-02-24T01:11:11.202Z,98116.66
2024-02-24T01:13:39.611Z,98112.31
2024-02-24T01:16:08.255Z,98105.38
2024-02-24T01:18:36.965Z,98112.28
2024-02-24T01:21:06.922Z,98115.75
2024-02-24T01:23:35.183Z,98107.97
2024-02-24T01:26:03.658Z,98114.00
2024-02-24T01:28:32.556Z,98114.84
2024-02-24T01:31:00.767Z,98113.13
2024-02-24T01:33:29.053Z,98108.78
2024-02-24T01:35:57.593Z,98107.91
2024-02-24T01:38:27.341Z,98105.31
2024-02-24T01:40:55.552Z,98104.41
2024-02-24T01:43:25.409Z,98115.69
2024-02-24T01:45:56.232Z,98107.00
2024-02-24T01:48:24.855Z,98112.22
2024-02-24T01:50:55.058Z,98108.75
2024-02-24T01:53:24.153Z,98112.22
2024-02-24T01:55:55.491Z,98112.22
2024-02-24T01:58:23.909Z,98113.91
2024-02-24T02:00:52.530Z,98108.72
2024-02-24T02:03:20.913Z,98111.31
2024-02-24T02:05:50.437Z,98107.84
2024-02-24T02:08:18.731Z,98106.94
2024-02-24T02:10:47.915Z,98105.22
2024-02-24T02:13:17.656Z,98105.19
2024-02-24T02:15:46.671Z,98112.13
2024-02-24T02:18:14.980Z,98109.53
2024-02-24T02:20:43.290Z,98119.03
2024-02-24T02:23:12.859Z,98123.38
2024-02-24T02:25:41.071Z,98114.69
2024-02-24T02:28:09.347Z,98115.56
2024-02-24T02:30:37.587Z,98107.72
2024-02-24T02:33:07.551Z,98114.66
2024-02-24T02:35:37.063Z,98124.22
2024-02-24T02:38:09.072Z,98121.59
2024-02-24T02:40:38.907Z,98119.84
2024-02-24T02:43:07.578Z,98113.75
2024-02-24T02:45:35.839Z,98119.84
2024-02-24T02:48:04.550Z,98119.81
2024-02-24T02:50:32.972Z,98117.22
2024-02-24T02:53:01.243Z,98120.69
2024-02-24T02:55:29.592Z,98129.34
2024-02-24T02:57:59.234Z,98134.53
2024-02-24T03:00:27.467Z,98124.13
2024-02-24T03:02:55.865Z,98135.41
2024-02-24T03:05:24.492Z,98132.81
2024-02-24T03:07:52.766Z,98126.75
2024-02-24T03:10:21.049Z,98132.81
2024-02-24T03:12:49.334Z,98127.63
2024-02-24T03:15:19.240Z,98125.91
2024-02-24T03:17:47.587Z,98133.72
2024-02-24T03:20:16.011Z,98122.44
2024-02-24T03:22:44.386Z,98134.56
2024-02-24T03:25:12.756Z,98128.50
2024-02-24T03:27:40.998Z,98134.53
2024-02-24T03:30:10.447Z,98126.72
2024-02-24T03:32:40.149Z,98125.81
2024-02-24T03:35:09.359Z,98131.00
2024-02-24T03:37:37.706Z,98136.19
2024-02-24T03:40:07.350Z,98130.97
2024-02-24T03:42:36.181Z,98133.53
2024-02-24T03:45:05.063Z,98130.06
2024-02-24T03:47:33.517Z,98138.72
2024-02-24T03:50:03.173Z,98141.31
2024-02-24T03:52:31.999Z,98141.31
2024-02-24T03:55:00.228Z,98150.84
2024-02-24T03:57:29.262Z,98148.22
2024-02-24T03:59:57.561Z,98151.72
2024-02-24T04:02:25.966Z,98149.13
2024-02-24T04:04:54.387Z,98152.59
2024-02-24T04:07:23.983Z,98154.31
2024-02-24T04:09:52.265Z,98160.41
2024-02-24T04:12:20.663Z,98167.31
2024-02-24T04:14:49.148Z,98163.84
2024-02-24T04:17:17.440Z,98181.16
2024-02-24T04:19:45.706Z,98165.56
2024-02-24T04:22:13.901Z,98170.78
2024-02-24T04:24:44.375Z,98171.63
2024-02-24T04:27:12.591Z,98166.41
2024-02-24T04:29:40.785Z,98172.47
2024-02-24T04:32:09.068Z,98174.16
2024-02-24T04:34:39.193Z,98178.50
2024-02-24T04:37:07.545Z,98170.66
2024-02-24T04:39:35.827Z,98181.06
2024-02-24T04:42:05.726Z,98179.31
2024-02-24T04:44:34.034Z,98184.50
2024-02-24T04:47:02.380Z,98185.34
2024-02-24T04:49:30.831Z,98191.41
2024-02-24T04:51:59.125Z,98187.97
2024-02-24T04:54:27.413Z,98192.28
2024-02-24T04:56:55.728Z,98196.66
2024-02-24T04:59:25.317Z,98201.88
2024-02-24T05:01:54.709Z,98201.00
2024-02-24T05:04:22.978Z,98196.69
2024-02-24T05:06:51.573Z,98195.81
2024-02-24T05:09:20.010Z,98202.72
2024-02-24T05:11:48.567Z,98205.31
2024-02-24T05:14:19.214Z,98213.13
2024-02-24T05:16:48.821Z,98210.50
2024-02-24T05:19:17.137Z,98213.13
2024-02-24T05:21:45.774Z,98208.78
2024-02-24T05:24:14.385Z,98207.06
2024-02-24T05:26:42.785Z,98212.25
2024-02-24T05:29:11.050Z,98216.59
2024-02-24T05:31:39.308Z,98226.13
2024-02-24T05:34:09.096Z,98229.59
2024-02-24T05:36:37.460Z,98226.16
2024-02-24T05:39:06.192Z,98224.44
2024-02-24T05:41:34.978Z,98230.50
2024-02-24T05:44:03.319Z,98232.28
2024-02-24T05:46:31.906Z,98235.72
2024-02-24T05:49:00.719Z,98239.22
2024-02-24T05:51:30.373Z,98234.91
2024-02-24T05:53:58.692Z,98235.75
2024-02-24T05:56:26.999Z,98232.28
2024-02-24T05:58:55.844Z,98240.97
2024-02-24T06:01:24.094Z,98239.28
2024-02-24T06:03:52.481Z,98241.00
2024-02-24T06:06:20.920Z,98251.44
2024-02-24T06:08:50.677Z,98253.19
2024-02-24T06:11:19.369Z,98250.56
2024-02-24T06:13:48.077Z,98254.06
2024-02-24T06:16:16.348Z,98261.88
2024-02-24T06:18:44.588Z,98264.47
2024-02-24T06:21:12.864Z,98267.09
2024-02-24T06:23:41.189Z,98278.38
2024-02-24T06:26:10.782Z,98280.13
2024-02-24T06:28:39.782Z,98278.41
2024-02-24T06:31:08.124Z,98275.81
2024-02-24T06:33:36.750Z,98283.59
2024-02-24T06:36:05.600Z,98275.81
2024-02-24T06:38:34.070Z,98279.31
2024-02-24T06:41:02.387Z,98283.69
2024-02-24T06:43:32.038Z,98284.53
2024-02-24T06:46:00.508Z,98283.69
2024-02-24T06:48:29.008Z,98281.91
2024-02-24T06:50:57.486Z,98288.88
2024-02-24T06:53:25.739Z,98285.41
2024-02-24T06:55:54.013Z,98289.75
2024-02-24T06:58:22.765Z,98290.63
2024-02-24T07:00:52.347Z,98290.63
2024-02-24T07:03:20.746Z,98288.06
2024-02-24T07:05:49.379Z,98297.59
2024-02-24T07:08:17.732Z,98301.91
2024-02-24T07:10:46.358Z,98304.56
2024-02-24T07:13:14.614Z,98301.94
2024-02-24T07:15:42.852Z,98304.56
2024-02-24T07:18:12.588Z,98300.22
2024-02-24T07:20:40.882Z,98308.03
2024-02-24T07:23:09.249Z,98309.78
2024-02-24T07:25:39.773Z,98319.34
2024-02-24T07:28:08.172Z,98328.03
2024-02-24T07:30:36.468Z,98328.88
2024-02-24T07:33:05.379Z,98327.19
2024-02-24T07:35:35.175Z,98336.75
2024-02-24T07:38:03.945Z,98336.75
2024-02-24T07:40:33.355Z,98349.75
2024-02-24T07:43:01.673Z,98347.19
2024-02-24T07:45:29.926Z,98350.69
2024-02-24T07:47:59.301Z,98355.88
2024-02-24T07:50:27.658Z,98359.34
2024-02-24T07:52:57.614Z,98357.66
2024-02-24T07:55:25.808Z,98363.72
2024-02-24T07:57:54.083Z,98367.22
2024-02-24T08:00:23.086Z,98361.16
2024-02-24T08:02:51.358Z,98368.97
2024-02-24T08:05:20.825Z,98370.75
2024-02-24T08:07:49.094Z,98374.25
2024-02-24T08:10:18.820Z,98375.13
2024-02-24T08:12:47.207Z,98384.69
2024-02-24T08:15:15.677Z,98379.47
2024-02-24T08:17:43.988Z,98378.63
2024-02-24T08:20:14.029Z,98375.19
2024-02-24T08:22:43.451Z,98383.00
2024-02-24T08:25:11.777Z,98393.44
2024-02-24T08:27:41.521Z,98398.66
2024-02-24T08:30:11.134Z,98389.97
2024-02-24T08:32:39.564Z,98393.44
2024-02-24T08:35:08.933Z,98396.03
2024-02-24T08:37:37.395Z,98399.50
2024-02-24T08:40:06.515Z,98405.56
2024-02-24T08:42:34.762Z,98415.09
2024-02-24T08:45:04.708Z,98414.22
2024-02-24T08:47:33.144Z,98418.53
2024-02-24T08:50:01.528Z,98420.25
2024-02-24T08:52:35.811Z,98426.34
2024-02-24T08:55:11.740Z,98422.81
2024-02-24T08:57:39.958Z,98428.03
2024-02-24T09:00:10.834Z,98432.38
2024-02-24T09:02:39.092Z,98436.72
2024-02-24T09:05:07.903Z,98441.91
2024-02-24T09:07:36.239Z,98443.63
2024-02-24T09:10:07.163Z,98447.09
2024-02-24T09:12:36.332Z,98452.31
2024-02-24T09:15:05.037Z,98465.31
2024-02-24T09:17:34.691Z,98468.75
2024-02-24T09:20:03.049Z,98466.13
2024-02-24T09:22:31.301Z,98469.56
2024-02-24T09:24:59.532Z,98467.81
2024-02-24T09:27:27.750Z,98482.50
2024-02-24T09:29:55.986Z,98483.41
2024-02-24T09:32:24.205Z,98491.22
2024-02-24T09:34:53.896Z,98492.88
2024-02-24T09:37:22.213Z,98497.22
2024-02-24T09:39:50.389Z,98498.09
2024-02-24T09:42:18.649Z,98507.59
2024-02-24T09:44:46.929Z,98507.63
2024-02-24T09:47:15.566Z,98528.47
2024-02-24T09:49:45.607Z,98521.56
2024-02-24T09:52:15.971Z,98518.16
2024-02-24T09:54:44.167Z,98528.66
2024-02-24T09:57:17.995Z,98527.81
2024-02-24T09:59:47.022Z,98536.50
2024-02-24T10:02:15.442Z,98534.81
2024-02-24T10:04:43.849Z,98547.00
2024-02-24T10:07:12.139Z,98547.03
2024-02-24T10:09:41.817Z,98551.44
2024-02-24T10:12:10.310Z,98553.19
2024-02-24T10:14:38.577Z,98548.84
2024-02-24T10:17:07.313Z,98558.38
2024-02-24T10:19:36.882Z,98567.06
2024-02-24T10:22:06.233Z,98563.53
2024-02-24T10:24:35.798Z,98573.91
2024-02-24T10:27:07.470Z,98557.38
2024-02-24T10:29:36.950Z,98565.13
2024-02-24T10:32:07.534Z,98577.28
2024-02-24T10:34:36.612Z,98578.16
2024-02-24T10:37:05.352Z,98582.47
2024-02-24T10:39:35.450Z,98583.34
2024-02-24T10:42:07.492Z,98585.94
2024-02-24T10:44:37.932Z,98578.19
2024-02-24T10:47:06.394Z,98582.56
2024-02-24T10:49:34.754Z,98579.06
2024-02-24T10:52:03.588Z,98577.34
2024-02-24T10:54:33.489Z,98582.59
2024-02-24T10:57:03.696Z,98584.34
2024-02-24T10:59:34.359Z,98593.03
2024-02-24T11:02:04.012Z,98594.81
2024-02-24T11:04:35.976Z,98591.34
2024-02-24T11:07:07.229Z,98597.44
2024-02-24T11:09:37.390Z,98596.56
2024-02-24T11:12:11.503Z,98591.44
2024-02-24T11:14:43.604Z,98598.44
2024-02-24T11:17:12.861Z,98602.84
2024-02-24T11:19:43.018Z,98600.34
2024-02-24T11:22:18.829Z,98609.09
2024-02-24T11:24:47.721Z,98606.56
2024-02-24T11:27:16.011Z,98607.47
2024-02-24T11:29:45.623Z,98600.56
2024-02-24T11:32:17.766Z,98603.22
2024-02-24T11:34:47.046Z,98605.88
2024-02-24T11:37:19.757Z,98598.97
2024-02-24T11:39:48.777Z,98603.34
2024-02-24T11:42:17.460Z,98603.38
2024-02-24T11:44:48.776Z,98599.94
2024-02-24T11:47:20.407Z,98606.91
2024-02-24T11:49:50.386Z,98601.75
2024-02-24T11:52:19.207Z,98604.38
2024-02-24T11:54:48.584Z,98608.72
2024-02-24T11:57:17.198Z,98608.72
2024-02-24T11:59:49.366Z,98614.81
2024-02-24T12:02:17.856Z,98618.34
2024-02-24T12:04:46.366Z,98625.28
2024-02-24T12:07:15.020Z,98619.22
2024-02-24T12:09:43.454Z,98624.41
2024-02-24T12:12:11.901Z,98623.53
2024-02-24T12:14:40.341Z,98627.00
2024-02-24T12:17:10.044Z,98624.34
2024-02-24T12:19:39.939Z,98621.75
2024-02-24T12:22:10.892Z,98623.53
2024-02-24T12:24:40.137Z,98629.59
2024-02-24T12:27:11.074Z,98632.25
2024-02-24T12:29:39.801Z,98634.88
2024-02-24T12:32:10.246Z,98635.81
2024-02-24T12:34:38.704Z,98632.34
2024-02-24T12:37:08.757Z,98635.00
2024-02-24T12:39:42.123Z,98641.13
2024-02-24T12:42:10.798Z,98636.00
2024-02-24T12:44:39.496Z,98634.31
2024-02-24T12:47:08.056Z,98630.03
2024-02-24T12:49:38.363Z,98633.50
2024-02-24T12:52:06.961Z,98644.84
2024-02-24T12:54:35.272Z,98647.47
2024-02-24T12:57:04.104Z,98639.63
2024-02-24T12:59:32.509Z,98654.38
2024-02-24T13:02:00.864Z,98667.44
2024-02-24T13:04:29.420Z,98681.31
2024-02-24T13:06:59.982Z,98662.16
2024-02-24T13:09:28.508Z,98660.38
2024-02-24T13:11:57.732Z,98660.38
2024-02-24T13:14:26.271Z,98651.66
2024-02-24T13:16:54.974Z,98662.06
2024-02-24T13:19:23.431Z,98655.13
2024-02-24T13:21:51.804Z,98656.00
2024-02-24T13:24:21.587Z,98655.09
2024-02-24T13:26:50.056Z,98660.31
2024-02-24T13:29:18.543Z,98661.19
2024-02-24T13:31:47.548Z,98672.47
2024-02-24T13:34:16.281Z,98666.38
2024-02-24T13:36:44.835Z,98658.53
2024-02-24T13:39:13.201Z,98663.78
2024-02-24T13:41:43.190Z,98663.81
2024-02-24T13:44:13.885Z,98659.53
2024-02-24T13:46:43.362Z,98665.63
2024-02-24T13:49:13.273Z,98662.16
2024-02-24T13:51:41.990Z,98666.56
2024-02-24T13:54:10.370Z,98667.44
2024-02-24T13:56:39.323Z,98667.44
2024-02-24T13:59:09.554Z,98667.44
2024-02-24T14:01:37.881Z,98668.28
2024-02-24T14:04:06.682Z,98664.75
2024-02-24T14:06:35.961Z,98668.25
2024-02-24T14:09:07.891Z,98660.41
2024-02-24T14:11:36.907Z,98665.66
2024-02-24T14:14:05.523Z,98667.41
2024-02-24T14:16:35.377Z,98668.28
2024-02-24T14:19:04.066Z,98675.22
2024-02-24T14:21:32.840Z,98673.47
2024-02-24T14:24:01.595Z,98686.50
2024-02-24T14:26:30.170Z,98691.69
2024-02-24T14:29:01.355Z,98698.63
2024-02-24T14:31:32.473Z,98698.63
2024-02-24T14:34:02.670Z,98685.59
2024-02-24T14:36:31.648Z,98688.28
2024-02-24T14:39:01.220Z,98691.84
2024-02-24T14:41:29.835Z,98693.69
2024-02-24T14:43:58.236Z,98688.50
2024-02-24T14:46:26.660Z,98694.63
2024-02-24T14:48:55.392Z,98691.16
2024-02-24T14:51:25.140Z,98688.56
2024-02-24T14:53:53.624Z,98695.50
2024-02-24T14:56:22.717Z,98690.25
2024-02-24T14:58:50.993Z,98695.41
2024-02-24T15:01:19.816Z,98700.59
2024-02-24T15:03:48.685Z,98698.81
2024-02-24T15:06:17.766Z,98697.03
2024-02-24T15:08:47.578Z,98712.66
2024-02-24T15:11:16.069Z,98707.38
2024-02-24T15:13:44.379Z,98703.03
2024-02-24T15:16:12.628Z,98700.41
2024-02-24T15:18:40.967Z,98709.94
2024-02-24T15:21:09.845Z,98708.19
2024-02-24T15:23:38.167Z,98712.56
2024-02-24T15:26:06.942Z,98712.56
2024-02-24T15:28:35.226Z,98717.78
2024-02-24T15:31:04.529Z,98722.13
2024-02-24T15:33:32.927Z,98713.44
2024-02-24T15:36:01.613Z,98720.38
2024-02-24T15:38:30.265Z,98728.16
2024-02-24T15:40:58.517Z,98727.28
2024-02-24T15:43:28.092Z,98731.59
2024-02-24T15:45:56.625Z,98732.44
2024-02-24T15:48:25.289Z,98739.38
2024-02-24T15:50:53.647Z,98739.34
2024-02-24T15:53:22.051Z,98744.56
2024-02-24T15:55:50.897Z,98747.09
2024-02-24T15:58:19.420Z,98746.22
2024-02-24T16:00:49.061Z,98749.72
2024-02-24T16:03:18.518Z,98750.56
2024-02-24T16:05:46.814Z,98743.59
2024-02-24T16:08:15.129Z,98740.16
2024-02-24T16:10:45.188Z,98743.59
2024-02-24T16:13:14.505Z,98749.69
2024-02-24T16:15:43.311Z,98755.75
2024-02-24T16:18:13.996Z,98767.91
2024-02-24T16:20:43.170Z,98759.13
2024-02-24T16:23:11.477Z,98768.66
2024-02-24T16:25:39.751Z,98769.50
2024-02-24T16:28:08.211Z,98770.31
2024-02-24T16:30:36.389Z,98773.78
2024-02-24T16:33:05.206Z,98782.41
2024-02-24T16:35:35.080Z,98778.91
2024-02-24T16:38:03.351Z,98772.78
2024-02-24T16:40:31.721Z,98784.94
2024-02-24T16:43:00.097Z,98795.31
2024-02-24T16:45:28.378Z,98785.75
2024-02-24T16:47:56.958Z,98790.06
2024-02-24T16:50:26.613Z,98791.75
2024-02-24T16:52:56.278Z,98803.91
2024-02-24T16:55:24.960Z,98808.22
2024-02-24T16:57:53.302Z,98806.44
2024-02-24T17:00:22.740Z,98814.19
2024-02-24T17:02:51.092Z,98815.88
2024-02-24T17:05:20.183Z,98814.06
2024-02-24T17:07:48.522Z,98814.88
2024-02-24T17:10:18.216Z,98818.31
2024-02-24T17:12:46.579Z,98823.50
2024-02-24T17:15:14.862Z,98819.09
2024-02-24T17:17:43.279Z,98824.28
2024-02-24T17:20:12.157Z,98827.72
2024-02-24T17:22:40.676Z,98828.53
2024-02-24T17:25:09.695Z,98831.13
2024-02-24T17:27:40.428Z,98832.00
2024-02-24T17:30:09.761Z,98828.47
2024-02-24T17:32:38.016Z,98839.78
2024-02-24T17:35:08.077Z,98839.72
2024-02-24T17:37:36.436Z,98840.53
2024-02-24T17:40:07.200Z,98846.53
2024-02-24T17:42:35.549Z,98844.81
2024-02-24T17:45:05.906Z,98853.47
2024-02-24T17:47:34.325Z,98852.56
2024-02-24T17:50:02.578Z,98856.88
2024-02-24T17:52:30.884Z,98862.06
2024-02-24T17:54:59.202Z,98863.75
2024-02-24T17:57:27.674Z,98864.63
2024-02-24T17:59:56.100Z,98868.13
2024-02-24T18:02:25.820Z,98875.03
2024-02-24T18:04:54.102Z,98871.56
2024-02-24T18:07:22.493Z,98873.34
2024-02-24T18:09:50.840Z,98874.19
2024-02-24T18:12:19.311Z,98872.47
2024-02-24T18:14:47.752Z,98884.63
2024-02-24T18:17:16.020Z,98884.59
2024-02-24T18:19:45.688Z,98892.41
2024-02-24T18:22:14.004Z,98882.78
2024-02-24T18:24:45.505Z,98883.63
2024-02-24T18:27:13.778Z,98887.03
2024-02-24T18:29:42.023Z,98891.34
2024-02-24T18:32:10.294Z,98880.84
2024-02-24T18:34:38.875Z,98886.84
2024-02-24T18:37:08.548Z,98888.59
2024-02-24T18:39:36.926Z,98889.41
2024-02-24T18:42:06.156Z,98885.88
2024-02-24T18:44:35.997Z,98887.56
2024-02-24T18:47:04.591Z,98884.03
2024-02-24T18:49:34.390Z,98883.13
2024-02-24T18:52:03.634Z,98882.19
2024-02-24T18:54:33.232Z,98884.75
2024-02-24T18:57:03.423Z,98882.97
2024-02-24T18:59:32.500Z,98889.88
2024-02-24T19:02:00.849Z,98882.06
2024-02-24T19:04:29.134Z,98886.34
2024-02-24T19:06:58.263Z,98887.22
2024-02-24T19:09:26.712Z,98888.03
2024-02-24T19:11:56.267Z,98885.44
2024-02-24T19:14:24.581Z,98890.63
2024-02-24T19:16:52.853Z,98889.72
2024-02-24T19:19:21.221Z,98885.44
2024-02-24T19:21:49.650Z,98890.59
2024-02-24T19:24:17.881Z,98895.78
2024-02-24T19:26:46.167Z,98890.59
2024-02-24T19:29:16.361Z,98892.28
2024-02-24T19:31:44.635Z,98892.22
2024-02-24T19:34:15.148Z,98889.63
2024-02-24T19:36:43.498Z,98895.63
2024-02-24T19:39:18.469Z,98899.97
2024-02-24T19:41:47.898Z,98906.84
2024-02-24T19:44:17.691Z,98903.38
2024-02-24T19:46:46.082Z,98893.84
2024-02-24T19:49:14.545Z,98898.16
2024-02-24T19:51:42.881Z,98883.38
2024-02-24T19:54:11.167Z,98893.78
2024-02-24T19:56:39.733Z,98892.00
2024-02-24T19:59:10.984Z,98887.66
2024-02-24T20:01:41.486Z,98888.50
2024-02-24T20:04:09.984Z,98887.59
2024-02-24T20:06:38.462Z,98891.88
2024-02-24T20:09:06.828Z,98893.56
2024-02-24T20:11:35.233Z,98892.66
2024-02-24T20:14:03.582Z,98894.38
2024-02-24T20:16:31.881Z,98891.75
2024-02-24T20:19:01.679Z,98896.03
2024-02-24T20:21:30.066Z,98895.13
2024-02-24T20:23:58.502Z,98907.22
2024-02-24T20:26:27.017Z,98904.56
2024-02-24T20:28:55.910Z,98908.84
2024-02-24T20:31:25.424Z,98911.44
2024-02-24T20:34:00.389Z,98912.25
2024-02-24T20:36:36.511Z,98906.19
2024-02-24T20:39:05.273Z,98909.66
2024-02-24T20:41:33.669Z,98890.53
2024-02-24T20:44:02.646Z,98904.34
2024-02-24T20:46:30.945Z,98894.81
2024-02-24T20:48:59.263Z,98896.53
2024-02-24T20:51:27.566Z,98901.75
2024-02-24T20:53:57.419Z,98903.47
2024-02-24T20:56:25.974Z,98891.34
2024-02-24T20:58:54.550Z,98890.47
2024-02-24T21:01:24.922Z,98888.75
2024-02-24T21:03:53.280Z,98895.66
2024-02-24T21:06:21.760Z,98893.03
2024-02-24T21:08:50.181Z,98894.75
2024-02-24T21:11:19.916Z,98889.50
2024-02-24T21:13:48.524Z,98892.09
2024-02-24T21:16:17.327Z,98890.38
2024-02-24T21:18:45.878Z,98890.38
2024-02-24T21:21:14.167Z,98888.69
2024-02-24T21:23:43.882Z,98879.09
2024-02-24T21:26:12.184Z,98876.50
2024-02-24T21:28:41.767Z,98874.78
2024-02-24T21:31:10.480Z,98874.78
2024-02-24T21:33:38.959Z,98877.38
2024-02-24T21:36:08.464Z,98873.03
2024-02-24T21:38:36.824Z,98866.09
2024-02-24T21:41:05.390Z,98866.09
2024-02-24T21:43:33.753Z,98865.28
2024-02-24T21:46:03.344Z,98858.31
2024-02-24T21:48:31.679Z,98859.19
2024-02-24T21:51:02.759Z,98847.91
2024-02-24T21:53:31.768Z,98848.78
2024-02-24T21:56:00.210Z,98853.16
2024-02-24T21:58:28.509Z,98854.88
2024-02-24T22:00:56.864Z,98857.50
2024-02-24T22:03:27.127Z,98859.22
2024-02-24T22:05:55.886Z,98851.44
2024-02-24T22:08:24.426Z,98847.09
2024-02-24T22:10:52.959Z,98841.03
2024-02-24T22:13:21.303Z,98844.50
2024-02-24T22:15:50.248Z,98845.34
2024-02-24T22:18:18.792Z,98845.31
2024-02-24T22:20:49.185Z,98840.13
2024-02-24T22:23:17.642Z,98851.38
2024-02-24T22:25:45.969Z,98840.13
2024-02-24T22:28:14.775Z,98837.50
2024-02-24T22:30:44.873Z,98838.38
2024-02-24T22:33:13.891Z,98831.50
2024-02-24T22:35:42.416Z,98835.78
2024-02-24T22:38:12.150Z,98839.28
2024-02-24T22:40:40.548Z,98839.28
2024-02-24T22:43:08.877Z,98827.13
2024-02-24T22:45:37.294Z,98831.50
2024-02-24T22:48:06.777Z,98823.69
2024-02-24T22:50:37.054Z,98824.56
2024-02-24T22:53:05.815Z,98820.22
2024-02-24T22:55:37.547Z,98817.63
2024-02-24T22:58:05.978Z,98830.63
2024-02-24T23:00:34.259Z,98815.94
2024-02-24T23:03:02.923Z,98812.50
2024-02-24T23:05:31.197Z,98824.63
2024-02-24T23:07:59.472Z,98818.59
2024-02-24T23:10:27.714Z,98817.75
2024-02-24T23:12:57.339Z,98820.38
2024-02-24T23:15:25.590Z,98821.25
2024-02-24T23:17:53.982Z,98814.31
2024-02-24T23:20:22.293Z,98816.06
2024-02-24T23:22:50.503Z,98817.78
2024-02-24T23:25:21.465Z,98812.59
2024-02-24T23:27:49.900Z,98818.66
2024-02-24T23:30:19.618Z,98821.31
2024-02-24T23:32:48.664Z,98803.16
2024-02-24T23:35:17.181Z,98805.75
2024-02-24T23:37:45.402Z,98803.16
2024-02-24T23:40:13.823Z,98799.69
2024-02-24T23:42:42.230Z,98800.56
2024-02-24T23:45:11.515Z,98798.88
2024-02-24T23:47:42.323Z,98792.81
2024-02-24T23:50:11.247Z,98800.63
2024-02-24T23:52:39.512Z,98791.13
2024-02-24T23:55:08.619Z,98789.41
2024-02-24T23:57:36.859Z,98783.38
